Time;durP1;ratioP1;P1;durP2;ratioP2;P2;SDS_P1;SDS_P2;PMS_P1;PMS_P2;Temp;Humidity;BMP_temperature;BMP_pressure;BME280_temperature;BME280_humidity;BME280_pressure;Samples;Min_cycle;Max_cycle;Signal;HPM_P1;HPM_P2
2021/12/22 00:01:35;;;;;;;;;55.67;45.33;;;;;1.15;76.24;102213.53;5059390;28;45367;-67
2021/12/22 00:04:00;;;;;;;;;48.33;41.00;;;;;1.04;76.16;102205.31;5059211;28;45560;-67
2021/12/22 00:06:27;;;;;;;;;53.67;43.00;;;;;0.91;77.11;102197.88;5059064;28;45392;-67
2021/12/22 00:08:53;;;;;;;;;42.33;40.33;;;;;0.96;76.89;102224.88;5059683;28;45659;-67
2021/12/22 00:11:19;;;;;;;;;58.00;43.33;;;;;0.88;77.15;102202.06;5058977;28;45481;-67
2021/12/22 00:13:45;;;;;;;;;56.33;43.00;;;;;0.87;77.16;102203.75;5059071;28;45462;-67
2021/12/22 00:16:11;;;;;;;;;60.00;43.33;;;;;0.78;76.92;102187.81;5058578;28;45332;-68
2021/12/22 00:18:40;;;;;;;;;57.00;43.00;;;;;0.82;76.84;102193.19;5058955;28;45407;-69
2021/12/22 00:21:25;;;;;;;;;52.00;41.33;;;;;0.84;77.57;102204.53;5059420;28;45400;-68
2021/12/22 00:23:51;;;;;;;;;49.00;42.67;;;;;0.69;78.18;102185.75;5059154;28;45433;-68
2021/12/22 00:26:16;;;;;;;;;48.33;41.33;;;;;0.76;77.92;102189.47;5059058;28;45390;-68
2021/12/22 00:28:42;;;;;;;;;46.67;40.67;;;;;0.71;78.08;102180.63;5059100;28;45393;-68
2021/12/22 00:31:12;;;;;;;;;52.67;40.67;;;;;0.90;77.93;102197.81;5058808;28;47502;-68
2021/12/22 00:33:46;;;;;;;;;46.67;42.67;;;;;0.86;77.69;102189.03;5058780;28;45738;-68
2021/12/22 00:36:12;;;;;;;;;57.67;39.67;;;;;0.89;77.54;102188.25;5058784;28;45691;-66
2021/12/22 00:38:37;;;;;;;;;44.67;36.33;;;;;0.90;77.74;102195.22;5059256;28;45440;-67
2021/12/22 00:41:03;;;;;;;;;46.33;37.00;;;;;0.84;77.60;102183.78;5058771;28;45590;-67
2021/12/22 00:43:34;;;;;;;;;46.33;40.33;;;;;0.90;77.58;102183.16;5059046;28;45403;-67
2021/12/22 00:46:01;;;;;;;;;45.33;34.67;;;;;0.87;77.04;102193.38;5058453;28;45313;-67
2021/12/22 00:48:27;;;;;;;;;47.00;35.00;;;;;0.86;76.96;102195.09;5058166;28;45498;-66
2021/12/22 00:50:53;;;;;;;;;44.33;35.00;;;;;0.82;76.82;102193.19;5058757;28;47103;-66
2021/12/22 00:53:23;;;;;;;;;45.00;38.33;;;;;0.74;77.99;102193.69;5058337;28;45421;-65
2021/12/22 00:56:19;;;;;;;;;44.33;38.00;;;;;0.69;78.34;102183.16;5058121;28;45593;-67
2021/12/22 00:58:47;;;;;;;;;44.33;37.33;;;;;0.71;77.88;102180.63;5057728;28;45367;-67
2021/12/22 01:01:20;;;;;;;;;53.33;43.00;;;;;0.66;78.41;102183.91;5057441;28;45843;-67
2021/12/22 01:03:45;;;;;;;;;45.67;38.33;;;;;0.66;78.29;102186.50;5073848;28;45795;-68
2021/12/22 01:06:13;;;;;;;;;49.00;40.33;;;;;0.62;78.60;102178.53;5058335;28;45408;-67
2021/12/22 01:08:39;;;;;;;;;46.33;38.00;;;;;0.50;79.01;102164.25;5058843;28;45454;-67
2021/12/22 01:11:05;;;;;;;;;40.67;38.33;;;;;0.31;78.57;102128.03;5058278;28;46037;-68
2021/12/22 01:13:34;;;;;;;;;42.00;35.33;;;;;0.55;78.95;102171.31;5058315;28;45451;-68
2021/12/22 01:16:00;;;;;;;;;48.67;35.67;;;;;0.46;79.24;102161.47;5058346;28;45426;-66
2021/12/22 01:18:32;;;;;;;;;37.33;37.33;;;;;0.52;79.42;102172.06;5057570;28;45636;-67
2021/12/22 01:23:35;;;;;;;;;45.00;37.67;;;;;0.48;78.94;102159.81;5057588;28;45604;-68
2021/12/22 01:26:03;;;;;;;;;49.67;40.33;;;;;0.48;78.88;102158.13;5057520;28;45319;-68
2021/12/22 01:28:33;;;;;;;;;34.00;30.67;;;;;0.56;78.98;102170.50;5056776;28;45452;-69
2021/12/22 01:31:02;;;;;;;;;45.00;35.00;;;;;0.45;78.96;102149.31;5057539;28;46272;-68
2021/12/22 01:33:28;;;;;;;;;44.67;36.00;;;;;0.39;78.92;102146.47;5057802;28;45407;-68
2021/12/22 01:35:53;;;;;;;;;38.00;31.67;;;;;0.53;78.86;102168.69;5057947;28;45703;-68
2021/12/22 01:38:19;;;;;;;;;39.00;33.00;;;;;0.50;78.95;102171.16;5058253;28;45490;-68
2021/12/22 01:40:47;;;;;;;;;46.67;36.00;;;;;0.58;78.26;102184.41;5057831;28;45885;-68
2021/12/22 01:43:17;;;;;;;;;48.67;35.33;;;;;0.57;78.33;102183.53;5058139;28;45387;-66
2021/12/22 01:51:46;;;;;;;;;42.67;32.33;;;;;0.32;78.08;102151.41;5057239;28;45344;-68
2021/12/22 01:54:23;;;;;;;;;34.33;29.00;;;;;0.59;78.44;102196.56;5057373;28;45514;-67
2021/12/22 01:56:52;;;;;;;;;37.67;31.67;;;;;0.12;78.31;102118.63;5057724;28;45352;-67
2021/12/22 01:59:21;;;;;;;;;47.00;36.33;;;;;0.56;78.15;102193.84;5057595;28;45273;-66
2021/12/22 02:01:47;;;;;;;;;38.67;34.00;;;;;0.48;78.29;102189.22;5057234;28;45936;-67
2021/12/22 02:04:14;;;;;;;;;36.33;31.00;;;;;0.43;78.84;102190.72;5057372;28;45396;-66
2021/12/22 02:06:41;;;;;;;;;43.33;35.67;;;;;0.37;78.82;102184.41;5057455;28;45430;-66
2021/12/22 02:09:09;;;;;;;;;41.67;34.67;;;;;0.48;78.92;102209.94;5057521;28;45555;-68
2021/12/22 02:11:35;;;;;;;;;44.00;35.33;;;;;0.47;78.72;102205.56;5057150;28;45419;-67
2021/12/22 02:14:03;;;;;;;;;38.67;33.00;;;;;-0.06;79.35;102129.97;5057249;28;45394;-66
2021/12/22 02:16:33;;;;;;;;;40.33;33.00;;;;;0.45;79.00;102204.66;5057278;28;45368;-67
2021/12/22 02:19:01;;;;;;;;;33.33;29.00;;;;;0.48;78.42;102212.53;5057264;28;45517;-67
2021/12/22 02:21:31;;;;;;;;;42.00;34.33;;;;;0.42;78.62;102206.19;5057195;28;45540;-67
2021/12/22 02:23:56;;;;;;;;;40.00;33.67;;;;;0.43;78.40;102206.25;5056824;28;45360;-67
2021/12/22 02:26:34;;;;;;;;;47.67;38.33;;;;;0.47;79.04;102222.84;5057403;28;45354;-67
2021/12/22 02:29:05;;;;;;;;;40.33;30.00;;;;;0.53;78.70;102225.69;5057576;28;45391;-66
2021/12/22 02:31:37;;;;;;;;;34.67;30.00;;;;;0.50;78.43;102218.66;5057060;28;47379;-67
2021/12/22 02:34:03;;;;;;;;;23.00;20.00;;;;;0.52;77.93;102211.84;5057004;28;45392;-67
2021/12/22 02:36:34;;;;;;;;;54.33;43.67;;;;;0.60;77.87;102237.22;5057203;28;45402;-67
2021/12/22 02:39:01;;;;;;;;;45.00;37.00;;;;;0.64;77.96;102231.31;5056168;28;45560;-67
2021/12/22 02:41:29;;;;;;;;;41.33;33.00;;;;;0.61;78.03;102226.00;5047596;28;46141;-67
2021/12/22 02:43:57;;;;;;;;;46.33;34.00;;;;;0.72;78.11;102249.81;5036923;28;45348;-67
2021/12/22 02:46:37;;;;;;;;;38.00;27.00;;;;;0.62;77.89;102227.78;5036743;28;45306;-67
2021/12/22 02:49:08;;;;;;;;;38.33;31.00;;;;;0.71;77.93;102241.13;5037201;28;45207;-67
2021/12/22 02:51:35;;;;;;;;;42.00;36.67;;;;;0.71;77.43;102245.44;5036635;28;45388;-67
2021/12/22 02:54:21;;;;;;;;;34.33;29.00;;;;;0.66;77.43;102238.34;5036807;28;45707;-67
2021/12/22 02:59:36;;;;;;;;;38.00;32.33;;;;;0.56;77.53;102227.53;5036785;28;45407;-67
2021/12/22 03:04:34;;;;;;;;;33.33;30.00;;;;;0.48;77.34;102222.91;5036705;28;45460;-67
2021/12/22 03:07:04;;;;;;;;;41.67;32.00;;;;;0.19;77.91;102180.22;5036571;28;45321;-67
2021/12/22 03:09:32;;;;;;;;;39.33;28.33;;;;;0.45;78.22;102217.59;5036943;28;45392;-67
2021/12/22 03:12:00;;;;;;;;;40.33;33.67;;;;;0.46;77.84;102218.47;5036044;28;46371;-67
2021/12/22 03:14:27;;;;;;;;;40.00;33.33;;;;;0.44;77.65;102204.56;5036367;28;45286;-67
2021/12/22 03:16:54;;;;;;;;;39.33;29.00;;;;;0.46;77.74;102208.97;5036480;28;45441;-67
2021/12/22 03:19:25;;;;;;;;;47.00;30.33;;;;;0.49;77.56;102214.31;5036653;28;45367;-68
2021/12/22 03:21:58;;;;;;;;;34.33;30.33;;;;;0.43;77.03;102198.50;5036043;28;46420;-67
2021/12/22 03:24:24;;;;;;;;;33.67;25.33;;;;;0.44;77.78;102207.16;5036329;28;45313;-67
2021/12/22 03:26:49;;;;;;;;;36.00;29.67;;;;;0.46;77.57;102200.34;5036405;28;45324;-68
2021/12/22 03:29:17;;;;;;;;;40.33;38.00;;;;;0.34;77.72;102188.63;5036604;28;45467;-67
2021/12/22 03:31:43;;;;;;;;;37.00;31.33;;;;;0.42;77.52;102201.94;5036606;28;46533;-67
2021/12/22 03:34:11;;;;;;;;;36.00;34.00;;;;;0.34;78.11;102186.03;5036305;28;45495;-68
2021/12/22 03:36:37;;;;;;;;;38.67;36.00;;;;;0.35;78.15;102184.34;5036217;28;45331;-68
2021/12/22 03:39:05;;;;;;;;;44.67;35.67;;;;;0.40;78.12;102189.72;5036527;28;45243;-65
2021/12/22 03:41:32;;;;;;;;;46.00;38.50;;;;;0.41;77.98;102187.19;5036266;28;46253;-65
2021/12/22 03:43:57;;;;;;;;;46.33;37.33;;;;;0.37;77.47;102176.63;5036431;28;45438;-65
2021/12/22 03:46:23;;;;;;;;;37.33;30.67;;;;;0.28;77.38;102167.66;5036287;28;45393;-65
2021/12/22 03:48:48;;;;;;;;;40.67;30.33;;;;;0.36;77.42;102182.63;5036426;28;45293;-65
2021/12/22 03:51:14;;;;;;;;;39.33;31.00;;;;;0.33;77.62;102179.09;5039325;28;45515;-65
2021/12/22 03:53:39;;;;;;;;;34.00;30.00;;;;;0.28;77.40;102170.25;5049628;28;45353;-65
2021/12/22 03:56:05;;;;;;;;;32.67;30.33;;;;;0.27;77.07;102173.63;5040854;28;45429;-65
2021/12/22 03:58:31;;;;;;;;;34.00;27.33;;;;;0.16;77.43;102165.44;5039946;28;45307;-64
2021/12/22 04:00:56;;;;;;;;;37.67;34.67;;;;;0.17;78.12;102169.78;5039323;28;46985;-65
2021/12/22 04:03:27;;;;;;;;;40.00;35.00;;;;;0.21;77.54;102173.38;5039724;28;45341;-64
2021/12/22 04:05:52;;;;;;;;;36.67;32.00;;;;;0.11;77.62;102163.44;5039532;28;45246;-65
2021/12/22 04:08:18;;;;;;;;;40.00;30.00;;;;;0.02;77.71;102145.81;5039660;28;45460;-65
2021/12/22 04:10:49;;;;;;;;;41.33;36.00;;;;;0.19;77.48;102167.25;5039243;28;46945;-65
2021/12/22 04:13:15;;;;;;;;;38.67;33.00;;;;;0.15;78.33;102155.88;5039408;28;45305;-65
2021/12/22 04:15:42;;;;;;;;;52.33;37.33;;;;;0.12;78.23;102154.88;5039363;28;45342;-65
2021/12/22 04:18:07;;;;;;;;;37.00;34.67;;;;;-0.01;78.10;102141.38;5039519;28;45269;-68
2021/12/22 04:20:33;;;;;;;;;39.00;32.00;;;;;0.03;78.49;102155.38;5039057;28;46659;-67
2021/12/22 04:22:59;;;;;;;;;46.00;36.00;;;;;0.03;78.59;102149.28;5039050;28;45318;-67
2021/12/22 04:25:25;;;;;;;;;33.67;28.67;;;;;0.02;78.87;102153.59;5039352;28;45405;-67
2021/12/22 04:27:55;;;;;;;;;39.00;29.67;;;;;0.06;78.73;102145.13;5039336;28;45325;-65
2021/12/22 04:30:22;;;;;;;;;41.33;33.67;;;;;0.10;78.67;102148.72;5038990;28;47412;-65
2021/12/22 04:32:47;;;;;;;;;45.00;35.00;;;;;-0.06;78.52;102127.38;5038759;28;45411;-65
2021/12/22 04:35:13;;;;;;;;;37.67;28.67;;;;;0.07;78.67;102148.59;5039141;28;45424;-66
2021/12/22 04:37:38;;;;;;;;;37.67;35.00;;;;;0.11;78.63;102147.91;5039141;28;45290;-66
2021/12/22 04:40:05;;;;;;;;;42.00;34.33;;;;;0.08;78.29;102133.13;5038875;28;46191;-65
2021/12/22 04:42:30;;;;;;;;;45.33;36.33;;;;;0.03;77.94;102136.34;5039187;28;45345;-65
2021/12/22 04:44:57;;;;;;;;;51.33;37.00;;;;;0.04;77.99;102156.25;5038993;28;45321;-65
2021/12/22 04:47:23;;;;;;;;;45.33;37.00;;;;;-0.03;78.42;102136.94;5038787;28;45306;-65
2021/12/22 04:49:48;;;;;;;;;38.67;31.33;;;;;0.02;78.53;102132.88;5038937;28;46515;-65
2021/12/22 04:52:20;;;;;;;;;38.67;28.00;;;;;0.08;77.90;102140.03;5038647;28;45219;-65
2021/12/22 04:55:03;;;;;;;;;37.33;29.67;;;;;0.10;78.09;102141.88;5038989;28;45325;-65
2021/12/22 04:57:29;;;;;;;;;42.00;28.33;;;;;0.06;77.91;102152.91;5038965;28;45423;-65
2021/12/22 04:59:54;;;;;;;;;31.67;31.33;;;;;-0.03;78.02;102134.38;5038372;28;46412;-65
2021/12/22 05:02:20;;;;;;;;;40.00;33.33;;;;;0.10;77.63;102159.09;5038340;28;45391;-65
2021/12/22 05:04:45;;;;;;;;;43.33;29.67;;;;;0.07;77.62;102146.00;5038980;28;45460;-67
2021/12/22 05:07:11;;;;;;;;;34.00;26.67;;;;;0.03;77.83;102139.81;5038701;28;45330;-67
2021/12/22 05:09:36;;;;;;;;;33.00;31.00;;;;;0.07;77.94;102135.66;5038672;28;45323;-67
2021/12/22 05:12:02;;;;;;;;;41.67;33.67;;;;;0.07;78.05;102138.25;5038411;28;45368;-67
2021/12/22 05:14:27;;;;;;;;;35.33;32.33;;;;;0.08;77.83;102133.13;5038638;28;45321;-67
2021/12/22 05:16:59;;;;;;;;;44.33;28.33;;;;;0.09;77.66;102141.81;5038935;28;45352;-68
2021/12/22 05:19:24;;;;;;;;;39.33;28.67;;;;;0.02;77.44;102129.41;5038288;28;45540;-68
2021/12/22 05:21:50;;;;;;;;;34.67;23.67;;;;;0.12;77.49;102147.97;5038284;28;45316;-68
2021/12/22 05:24:15;;;;;;;;;30.33;29.00;;;;;0.11;77.57;102147.91;5038361;28;45326;-68
2021/12/22 05:26:40;;;;;;;;;22.67;18.33;;;;;0.10;76.96;102149.63;5038578;28;45382;-68
2021/12/22 05:29:06;;;;;;;;;28.67;27.00;;;;;-0.21;77.26;102096.50;5038465;28;45677;-68
2021/12/22 05:31:31;;;;;;;;;34.33;27.00;;;;;0.07;77.72;102138.25;5038267;28;45439;-68
2021/12/22 05:33:57;;;;;;;;;28.33;26.33;;;;;0.11;77.50;102142.72;5038524;28;45348;-68
2021/12/22 05:36:23;;;;;;;;;29.33;25.67;;;;;0.11;77.73;102140.16;5036923;28;45611;-68
2021/12/22 05:38:48;;;;;;;;;30.33;27.67;;;;;0.17;77.60;102154.25;5038031;28;46227;-68
2021/12/22 05:41:14;;;;;;;;;24.33;20.67;;;;;0.21;77.53;102162.16;5038263;28;45218;-68
2021/12/22 05:43:39;;;;;;;;;28.00;23.33;;;;;0.16;77.44;102154.16;5038279;28;45243;-68
2021/12/22 05:46:05;;;;;;;;;36.33;33.33;;;;;0.14;77.37;102156.69;5038519;28;45321;-68
2021/12/22 05:48:30;;;;;;;;;33.33;29.00;;;;;0.20;77.05;102169.00;5037737;28;46260;-68
2021/12/22 05:51:00;;;;;;;;;30.00;21.33;;;;;0.12;77.17;102162.66;5037812;28;45316;-68
2021/12/22 05:53:27;;;;;;;;;26.33;25.33;;;;;0.21;77.00;102165.63;5038080;28;45373;-68
2021/12/22 05:55:53;;;;;;;;;31.00;29.00;;;;;0.23;76.31;102156.19;5038089;28;45293;-68
2021/12/22 05:58:19;;;;;;;;;36.00;26.33;;;;;0.18;76.62;102165.50;5037772;28;45485;-68
2021/12/22 06:00:44;;;;;;;;;26.67;19.67;;;;;0.07;76.73;102149.47;5037633;28;45380;-68
2021/12/22 06:03:12;;;;;;;;;34.67;27.00;;;;;0.03;76.95;102146.69;5037755;28;45254;-67
2021/12/22 06:05:39;;;;;;;;;26.67;23.00;;;;;-0.13;76.90;102133.09;5038087;28;45410;-67
2021/12/22 06:08:05;;;;;;;;;36.67;25.67;;;;;-0.19;77.35;102125.94;5037282;28;45526;-68
2021/12/22 06:10:34;;;;;;;;;29.00;27.33;;;;;-0.15;78.00;102126.94;5037471;28;45340;-67
2021/12/22 06:13:03;;;;;;;;;33.67;25.67;;;;;-0.15;77.55;102124.38;5037543;28;45391;-67
2021/12/22 06:15:29;;;;;;;;;31.67;28.00;;;;;-0.16;77.34;102121.72;5037011;28;45489;-68
2021/12/22 06:17:57;;;;;;;;;22.33;21.33;;;;;-0.16;77.23;102127.78;5037252;28;46621;-65
2021/12/22 06:20:23;;;;;;;;;22.33;21.33;;;;;-0.30;77.37;102106.47;5037622;28;45459;-67
2021/12/22 06:22:48;;;;;;;;;26.67;25.33;;;;;-0.17;78.01;102131.19;5037454;28;45292;-68
2021/12/22 06:25:14;;;;;;;;;38.33;28.33;;;;;-0.08;77.33;102141.06;5037596;28;45376;-68
2021/12/22 06:27:39;;;;;;;;;36.00;35.67;;;;;-0.12;77.87;102132.25;5037404;28;45861;-68
2021/12/22 06:30:05;;;;;;;;;40.00;31.00;;;;;-0.03;77.53;102145.63;5037018;28;45340;-68
2021/12/22 06:32:31;;;;;;;;;29.67;26.00;;;;;-0.03;77.06;102139.53;5037570;28;45258;-68
2021/12/22 06:34:56;;;;;;;;;36.33;30.00;;;;;-0.12;77.57;102144.34;5037316;28;45307;-68
2021/12/22 06:37:22;;;;;;;;;33.33;32.00;;;;;-0.13;77.54;102148.63;5037054;28;46406;-68
2021/12/22 06:39:47;;;;;;;;;26.00;24.33;;;;;-0.11;77.78;102153.88;5037339;28;45426;-68
2021/12/22 06:42:13;;;;;;;;;54.00;41.33;;;;;-0.04;77.37;102174.91;5037412;28;45299;-68
2021/12/22 06:44:38;;;;;;;;;32.33;29.33;;;;;-0.10;77.00;102164.28;5037263;28;45412;-68
2021/12/22 06:47:04;;;;;;;;;33.33;27.33;;;;;-0.10;77.18;102155.63;5036627;28;46971;-65
2021/12/22 06:49:29;;;;;;;;;35.67;28.33;;;;;-0.04;77.38;102163.69;5036866;28;45382;-65
2021/12/22 06:51:55;;;;;;;;;30.33;23.00;;;;;0.03;77.35;102176.06;5037134;28;45385;-68
2021/12/22 06:54:20;;;;;;;;;29.00;25.33;;;;;-0.06;76.58;102166.22;5037500;28;45369;-68
2021/12/22 06:56:46;;;;;;;;;33.00;28.00;;;;;-0.06;76.50;102176.56;5036881;28;46128;-68
2021/12/22 06:59:13;;;;;;;;;24.33;20.33;;;;;-0.47;76.36;102108.31;5036847;28;45421;-68
2021/12/22 07:01:39;;;;;;;;;32.67;26.67;;;;;-0.38;76.81;102134.63;5036864;28;45286;-68
2021/12/22 07:04:04;;;;;;;;;29.67;25.00;;;;;-0.44;77.18;102139.47;5037078;28;45201;-67
2021/12/22 07:06:30;;;;;;;;;29.33;25.33;;;;;-0.37;77.19;102158.78;5036786;28;45578;-67
2021/12/22 07:08:56;;;;;;;;;29.67;26.67;;;;;-0.38;76.82;102154.41;5036867;28;45394;-67
2021/12/22 07:11:22;;;;;;;;;38.33;32.00;;;;;-0.41;76.66;102157.72;5036791;28;45401;-68
2021/12/22 07:13:47;;;;;;;;;57.00;47.33;;;;;-0.55;77.84;102139.03;5037146;28;45325;-68
2021/12/22 07:16:13;;;;;;;;;39.00;32.00;;;;;-0.46;77.55;102159.25;5036437;28;46467;-68
2021/12/22 07:18:39;;;;;;;;;26.67;26.67;;;;;-0.51;78.26;102158.13;5036656;28;45408;-68
2021/12/22 07:21:04;;;;;;;;;45.00;39.00;;;;;-0.51;77.22;102152.97;5036901;28;45340;-68
2021/12/22 07:23:30;;;;;;;;;33.33;26.33;;;;;-0.58;77.56;102148.31;5036622;28;45472;-68
2021/12/22 07:25:55;;;;;;;;;40.00;33.00;;;;;-0.57;77.95;102157.88;5036551;28;46628;-68
2021/12/22 07:28:20;;;;;;;;;29.33;29.33;;;;;-0.56;78.27;102155.34;5040176;28;45369;-68
2021/12/22 07:30:46;;;;;;;;;31.67;28.00;;;;;-0.59;77.54;102151.75;5040306;28;45373;-68
2021/12/22 07:33:12;;;;;;;;;40.67;31.67;;;;;-0.58;77.52;102158.66;5040270;28;45296;-65
2021/12/22 07:35:52;;;;;;;;;26.00;21.67;;;;;-0.75;77.94;102135.50;5039937;28;46237;-65
2021/12/22 07:38:35;;;;;;;;;45.33;31.33;;;;;-0.64;78.77;102154.13;5039939;28;45381;-65
2021/12/22 07:41:03;;;;;;;;;54.00;37.00;;;;;-0.57;78.88;102157.88;5040083;28;45403;-65
2021/12/22 07:43:29;;;;;;;;;34.00;26.33;;;;;-0.57;78.36;102157.88;5040057;28;45407;-66
2021/12/22 07:45:55;;;;;;;;;44.33;38.00;;;;;-0.55;77.83;102164.88;5039676;28;45320;-68
2021/12/22 07:48:20;;;;;;;;;41.67;29.67;;;;;-0.71;77.80;102141.72;5039513;28;45324;-67
2021/12/22 07:50:47;;;;;;;;;53.33;41.67;;;;;-0.63;78.30;102158.47;5039694;28;45896;-68
2021/12/22 07:53:12;;;;;;;;;39.33;32.67;;;;;-0.71;78.13;102155.53;5039874;28;45278;-67
2021/12/22 07:55:38;;;;;;;;;44.00;40.00;;;;;-0.68;79.09;102165.16;5039808;28;45355;-68
2021/12/22 07:58:04;;;;;;;;;38.33;34.00;;;;;-0.64;79.26;102161.91;5039524;28;45254;-68
2021/12/22 08:00:29;;;;;;;;;46.33;35.33;;;;;-0.65;79.54;102165.28;5039585;28;45399;-68
2021/12/22 08:02:55;;;;;;;;;42.00;30.00;;;;;-0.57;79.10;102165.63;5039833;28;45219;-67
2021/12/22 08:05:21;;;;;;;;;43.67;34.00;;;;;-0.84;79.15;102113.50;5039377;28;46424;-67
2021/12/22 08:07:47;;;;;;;;;46.00;38.67;;;;;-0.48;79.18;102166.06;5039168;28;45447;-68
2021/12/22 08:10:12;;;;;;;;;33.67;33.00;;;;;-0.43;78.88;102166.25;5039672;28;45333;-68
2021/12/22 08:12:37;;;;;;;;;39.33;32.67;;;;;-0.51;78.63;102152.97;5039770;28;45349;-68
2021/12/22 08:15:04;;;;;;;;;36.00;32.00;;;;;-0.43;78.73;102154.22;5039367;28;46191;-68
2021/12/22 08:17:31;;;;;;;;;32.67;32.00;;;;;-0.38;78.33;102155.31;5039372;28;45433;-68
2021/12/22 08:19:57;;;;;;;;;41.00;36.00;;;;;-0.36;78.17;102153.66;5039420;28;45374;-67
2021/12/22 08:22:22;;;;;;;;;53.67;40.67;;;;;-0.32;78.46;102141.75;5039398;28;45251;-67
2021/12/22 08:24:50;;;;;;;;;37.33;33.67;;;;;-0.36;78.05;102121.75;5038987;28;46499;-68
2021/12/22 08:27:17;;;;;;;;;43.00;38.33;;;;;-0.30;78.14;102128.88;5039095;28;45287;-68
2021/12/22 08:29:44;;;;;;;;;41.00;30.00;;;;;-0.14;77.78;102146.84;5039408;28;45482;-68
2021/12/22 08:32:11;;;;;;;;;39.67;33.33;;;;;-0.13;77.80;102129.59;5039376;28;45482;-68
2021/12/22 08:34:39;;;;;;;;;47.00;36.33;;;;;-0.08;77.83;102129.00;5038857;28;46252;-68
2021/12/22 08:39:50;;;;;;;;;39.00;35.67;;;;;0.05;77.31;102127.81;5039369;28;45211;-66
2021/12/22 08:42:15;;;;;;;;;52.33;30.00;;;;;0.04;76.77;102096.69;5039188;28;45591;-68
2021/12/22 08:44:41;;;;;;;;;39.67;34.00;;;;;0.31;76.00;102115.97;5038759;28;46238;-68
2021/12/22 08:47:07;;;;;;;;;34.00;27.33;;;;;0.35;76.08;102119.59;5038890;28;45729;-68
2021/12/22 08:49:33;;;;;;;;;40.00;33.67;;;;;0.34;75.66;102108.31;5038912;28;45244;-68
2021/12/22 08:51:58;;;;;;;;;30.67;30.67;;;;;0.51;75.98;102121.09;5039194;28;45155;-68
2021/12/22 08:54:24;;;;;;;;;40.67;32.67;;;;;0.56;75.07;102113.50;5038467;28;45496;-68
2021/12/22 08:56:50;;;;;;;;;35.67;31.33;;;;;0.57;74.77;102100.59;5038699;28;45420;-68
2021/12/22 08:59:16;;;;;;;;;41.00;31.67;;;;;0.71;75.31;102093.34;5037872;28;45482;-68
2021/12/22 09:01:42;;;;;;;;;41.00;32.67;;;;;0.99;74.11;102123.84;5038726;28;45373;-69
2021/12/22 09:04:07;;;;;;;;;38.33;30.00;;;;;0.97;73.15;102101.28;5038645;28;46422;-68
2021/12/22 09:06:33;;;;;;;;;40.67;31.67;;;;;1.22;73.36;102116.09;5038447;28;45379;-69
2021/12/22 09:08:58;;;;;;;;;41.33;32.33;;;;;1.26;72.48;102104.09;5038602;28;45176;-68
2021/12/22 09:11:25;;;;;;;;;35.67;32.33;;;;;1.34;72.56;102118.25;5038817;28;45541;-69
2021/12/22 09:13:51;;;;;;;;;30.33;24.00;;;;;1.32;71.97;102117.28;5038154;28;45367;-66
2021/12/22 09:16:16;;;;;;;;;40.00;31.33;;;;;1.44;72.68;102107.38;5038612;28;45464;-65
2021/12/22 09:18:42;;;;;;;;;36.00;29.00;;;;;1.41;71.86;102098.59;5038284;28;45411;-68
2021/12/22 09:21:09;;;;;;;;;47.00;35.67;;;;;1.46;71.95;102108.31;5038026;28;45762;-68
2021/12/22 09:23:35;;;;;;;;;43.67;37.33;;;;;1.56;71.35;102112.13;5037944;28;46342;-66
2021/12/22 09:26:01;;;;;;;;;42.67;34.33;;;;;1.13;71.64;102032.72;5038051;28;45432;-68
2021/12/22 09:28:26;;;;;;;;;47.33;40.33;;;;;1.47;72.19;102083.25;5037764;28;45392;-68
2021/12/22 09:30:52;;;;;;;;;41.67;32.33;;;;;1.50;71.95;102091.16;5051458;28;45316;-68
2021/12/22 09:33:19;;;;;;;;;43.00;38.00;;;;;1.46;71.79;102094.47;5057672;28;46362;-66
2021/12/22 09:35:48;;;;;;;;;42.33;36.33;;;;;1.55;71.58;102093.09;5058140;28;45314;-65
2021/12/22 09:38:13;;;;;;;;;37.67;33.00;;;;;1.72;71.18;102110.97;5037980;28;45504;-68
2021/12/22 09:40:39;;;;;;;;;55.00;40.00;;;;;1.99;71.47;102120.56;5038223;28;45373;-67
2021/12/22 09:43:05;;;;;;;;;46.00;33.33;;;;;2.25;70.72;102111.97;5037807;28;45544;-67
2021/12/22 09:45:34;;;;;;;;;40.67;32.67;;;;;2.52;69.17;102105.88;5037433;28;45413;-65
2021/12/22 09:53:22;;;;;;;;;43.00;36.00;;;;;3.55;64.62;102056.03;5056420;28;46192;-65
2021/12/22 09:55:50;;;;;;;;;35.67;29.33;;;;;4.11;63.64;102093.97;5057515;28;45430;-66
2021/12/22 09:58:17;;;;;;;;;49.00;33.33;;;;;4.02;62.89;102099.81;5057571;28;45408;-67
2021/12/22 10:00:44;;;;;;;;;44.67;38.33;;;;;3.70;63.90;102094.63;5057884;28;45688;-65
2021/12/22 10:03:11;;;;;;;;;37.33;32.00;;;;;3.48;64.21;102099.22;5048492;28;45433;-65
2021/12/22 10:05:39;;;;;;;;;42.33;37.00;;;;;3.24;65.15;102103.72;5037467;28;45553;-68
2021/12/22 10:08:13;;;;;;;;;46.33;38.33;;;;;3.18;65.92;102114.88;5036877;28;45372;-68
2021/12/22 10:10:46;;;;;;;;;41.00;35.33;;;;;2.93;65.72;102103.72;5049204;28;45419;-68
2021/12/22 10:13:15;;;;;;;;;48.00;36.00;;;;;2.88;67.42;102117.41;5047411;28;45988;-65
2021/12/22 10:15:41;;;;;;;;;35.00;31.00;;;;;2.67;67.68;102110.69;5037293;28;45373;-66
2021/12/22 10:18:13;;;;;;;;;45.67;40.00;;;;;2.60;68.01;102104.44;5037214;28;45514;-67
2021/12/22 10:20:40;;;;;;;;;43.33;36.33;;;;;2.56;68.02;102094.75;5037602;28;45302;-66
2021/12/22 10:23:27;;;;;;;;;44.67;39.67;;;;;2.54;68.81;102092.94;5036962;28;46612;-66
2021/12/22 10:26:01;;;;;;;;;41.33;36.67;;;;;2.65;68.13;102091.56;5036899;28;45399;-66
2021/12/22 10:28:28;;;;;;;;;42.00;30.67;;;;;2.72;68.01;102103.06;5037099;28;45405;-66
2021/12/22 10:31:01;;;;;;;;;40.33;38.33;;;;;2.75;68.17;102065.00;5037330;28;45414;-66
2021/12/22 10:33:29;;;;;;;;;52.67;38.33;;;;;2.90;67.76;102061.09;5036796;28;45545;-66
2021/12/22 10:36:00;;;;;;;;;49.67;40.67;;;;;3.09;67.47;102084.25;5036680;28;45501;-66
2021/12/22 10:38:31;;;;;;;;;37.33;34.33;;;;;3.20;66.13;102075.88;5038739;28;45322;-67
2021/12/22 10:41:02;;;;;;;;;50.67;40.00;;;;;3.21;65.70;102075.00;5044800;28;45243;-68
2021/12/22 10:43:30;;;;;;;;;47.33;38.67;;;;;3.10;65.07;102046.97;5051205;28;46712;-68
2021/12/22 10:45:59;;;;;;;;;42.33;37.33;;;;;3.14;66.32;102050.56;5057202;28;45294;-67
2021/12/22 10:51:19;;;;;;;;;39.33;33.67;;;;;3.18;66.20;102061.91;5037166;28;45368;-67
2021/12/22 10:53:47;;;;;;;;;48.33;36.67;;;;;3.07;65.71;102056.41;5053023;28;45556;-67
2021/12/22 10:56:27;;;;;;;;;42.00;36.00;;;;;2.93;66.03;102048.19;5051656;28;45409;-67
2021/12/22 10:59:02;;;;;;;;;48.33;38.67;;;;;2.78;66.46;102036.47;5037020;28;45241;-67
2021/12/22 11:01:27;;;;;;;;;36.33;30.33;;;;;2.74;66.96;102036.34;5039494;28;45300;-67
2021/12/22 11:04:01;;;;;;;;;43.33;39.33;;;;;2.73;67.04;102040.69;5040232;28;46588;-67
2021/12/22 11:06:29;;;;;;;;;50.33;42.67;;;;;2.71;67.51;102041.47;5040358;28;45273;-67
2021/12/22 11:09:10;;;;;;;;;55.67;41.33;;;;;2.67;67.25;102029.19;5043985;28;45365;-67
2021/12/22 11:11:49;;;;;;;;;47.33;38.00;;;;;2.69;67.65;102019.75;5051066;27;45597;-68
2021/12/22 11:14:22;;;;;;;;;49.00;40.67;;;;;2.63;67.47;102016.94;5048600;28;45574;-69
2021/12/22 11:17:01;;;;;;;;;52.00;39.00;;;;;2.60;67.89;102018.63;5060499;28;45421;-68
2021/12/22 11:19:30;;;;;;;;;42.67;37.00;;;;;2.56;67.84;102013.28;5054776;28;45373;-69
2021/12/22 11:22:18;;;;;;;;;52.00;41.33;;;;;2.65;68.19;102023.97;5057189;28;45427;-68
2021/12/22 11:24:52;;;;;;;;;56.00;41.67;;;;;2.26;67.79;101955.19;5059663;28;46677;-69
2021/12/22 11:27:20;;;;;;;;;52.33;39.67;;;;;2.65;68.31;102016.16;5060144;28;45258;-69
2021/12/22 11:29:51;;;;;;;;;58.00;41.67;;;;;2.72;68.48;102007.69;5060013;28;45422;-68
2021/12/22 11:32:19;;;;;;;;;44.00;37.00;;;;;2.70;68.40;101977.28;5054981;28;45254;-68
2021/12/22 11:34:49;;;;;;;;;50.00;38.33;;;;;2.79;68.22;101977.56;5040237;28;45449;-68
2021/12/22 11:37:16;;;;;;;;;52.00;42.33;;;;;2.79;67.68;101974.97;5050250;28;45453;-67
2021/12/22 11:39:41;;;;;;;;;43.67;39.00;;;;;2.77;68.08;101963.63;5052728;28;45520;-66
2021/12/22 11:42:09;;;;;;;;;49.00;41.67;;;;;2.88;68.07;101969.16;5058244;28;46244;-69